createdAt,value
2022-12-13T02:21:07.816Z,49.47
2022-12-13T02:22:17.766Z,53.44
2022-12-13T02:23:41.289Z,52.47
2022-12-13T02:24:51.017Z,52.00
2022-12-13T02:26:00.526Z,50.25
2022-12-13T02:27:31.211Z,52.56
2022-12-13T02:29:11.423Z,50.47
2022-12-13T02:30:27.134Z,48.20
2022-12-13T02:31:34.174Z,51.80
2022-12-13T02:33:00.247Z,52.53
2022-12-13T02:34:14.792Z,52.13
2022-12-13T02:35:53.035Z,49.20
2022-12-13T02:37:00.968Z,50.06
2022-12-13T02:38:21.483Z,48.87
2022-12-13T02:39:30.728Z,47.94
2022-12-13T02:40:34.279Z,48.44
2022-12-13T02:41:48.438Z,50.60
2022-12-13T02:43:01.083Z,42.67
2022-12-13T02:44:21.686Z,52.00
2022-12-13T02:45:21.036Z,50.19
2022-12-13T02:46:28.045Z,51.63
2022-12-13T02:47:36.399Z,51.47
2022-12-13T02:48:42.954Z,52.44
2022-12-13T02:49:55.563Z,58.06
2022-12-13T03:05:24.079Z,56.00
2022-12-13T03:08:28.905Z,52.20
2022-12-13T03:10:01.490Z,51.47
2022-12-13T03:11:21.034Z,51.19
2022-12-13T03:29:25.980Z,54.33
2022-12-13T03:42:02.015Z,45.12
2022-12-13T03:43:08.688Z,54.25
2022-12-13T03:44:11.749Z,56.25
2022-12-13T03:45:42.450Z,55.06
2022-12-13T03:47:51.852Z,56.00
2022-12-13T03:50:26.368Z,47.88
2022-12-13T03:51:13.188Z,58.19
2022-12-13T03:52:17.109Z,54.69
2022-12-13T03:53:33.767Z,53.81
2022-12-13T03:54:28.043Z,51.60
2022-12-13T03:55:31.992Z,57.47
2022-12-13T03:56:35.990Z,54.47
2022-12-13T03:57:41.548Z,56.93
2022-12-13T04:14:02.237Z,57.94
2022-12-13T04:15:08.633Z,50.06
2022-12-13T04:16:12.580Z,54.06
2022-12-13T04:17:16.496Z,57.62
2022-12-13T04:18:21.932Z,54.81
2022-12-13T04:19:27.418Z,54.38
2022-12-13T04:20:31.404Z,57.44
2022-12-13T04:21:35.371Z,56.25
2022-12-13T04:22:39.348Z,58.38
2022-12-13T04:23:45.607Z,56.19
2022-12-13T04:24:49.450Z,59.19
2022-12-13T04:25:53.379Z,61.25
2022-12-13T04:26:57.346Z,63.13
2022-12-13T04:28:03.002Z,62.00
2022-12-13T04:29:06.902Z,60.53
2022-12-13T04:30:14.526Z,58.63
2022-12-13T04:31:18.532Z,57.80
2022-12-13T04:32:27.336Z,55.56
2022-12-13T04:33:47.255Z,57.53
2022-12-13T04:34:51.109Z,60.67
2022-12-13T04:35:56.681Z,58.50
2022-12-13T04:37:02.257Z,58.53
2022-12-13T04:38:07.469Z,59.44
2022-12-13T04:39:22.820Z,57.60
2022-12-13T04:40:21.753Z,53.19
2022-12-13T04:41:23.216Z,55.38
2022-12-13T04:42:27.151Z,56.06
2022-12-13T04:43:30.990Z,56.56
2022-12-13T04:44:37.027Z,58.13
2022-12-13T04:45:40.530Z,57.56
2022-12-13T04:46:45.072Z,60.19
2022-12-13T04:47:50.689Z,59.13
2022-12-13T04:48:54.606Z,65.33
2022-12-13T04:49:58.595Z,58.81
2022-12-13T04:51:04.886Z,63.75
2022-12-13T04:52:11.029Z,65.75
2022-12-13T04:54:26.530Z,58.50
2022-12-13T04:55:32.152Z,61.31
2022-12-13T04:56:40.416Z,61.27
2022-12-13T04:57:44.501Z,57.38
2022-12-13T04:58:48.451Z,56.40
2022-12-13T05:15:42.847Z,58.47
2022-12-13T05:16:48.367Z,57.94
2022-12-13T05:17:52.372Z,59.00
2022-12-13T05:18:57.925Z,63.19
2022-12-13T05:20:33.218Z,56.31
2022-12-13T05:21:11.970Z,58.13
2022-12-13T05:22:20.312Z,50.67
2022-12-13T05:23:27.601Z,54.33
2022-12-13T05:24:37.274Z,49.27
2022-12-13T05:25:41.301Z,54.31
2022-12-13T05:26:45.506Z,59.13
2022-12-13T05:27:51.355Z,57.62
2022-12-13T05:28:59.869Z,54.67
2022-12-13T05:30:06.848Z,56.80
2022-12-13T05:31:23.704Z,56.56
2022-12-13T05:32:20.472Z,59.33
2022-12-13T05:33:27.240Z,56.00
2022-12-13T05:34:32.321Z,58.81
2022-12-13T05:35:37.999Z,57.56
2022-12-13T05:36:41.955Z,56.13
2022-12-13T05:39:28.189Z,58.13
2022-12-13T05:40:22.367Z,57.27
2022-12-13T05:43:00.725Z,57.47
2022-12-13T05:44:04.718Z,60.00
2022-12-13T05:45:10.489Z,61.20
2022-12-13T05:46:14.646Z,55.40
2022-12-13T05:47:18.819Z,57.19
2022-12-13T05:48:24.486Z,51.06
2022-12-13T05:49:28.401Z,58.69
2022-12-13T05:50:32.492Z,57.53
2022-12-13T05:51:36.411Z,56.81
2022-12-13T05:52:40.445Z,57.44
2022-12-13T05:53:49.993Z,62.31
2022-12-13T05:54:56.359Z,57.40
2022-12-13T05:56:03.645Z,60.44
2022-12-13T05:57:07.578Z,62.38
2022-12-13T05:58:13.081Z,58.75
2022-12-13T05:59:18.914Z,58.87
2022-12-13T06:00:30.184Z,58.53
2022-12-13T06:01:30.752Z,59.80
2022-12-13T10:30:26.342Z,38.81
2022-12-13T10:31:26.885Z,40.19
2022-12-13T10:32:37.813Z,43.38
2022-12-13T10:33:46.936Z,39.33
2022-12-13T10:34:54.948Z,39.94
2022-12-13T10:36:16.771Z,37.60
2022-12-13T10:37:31.946Z,31.31
2022-12-13T10:38:38.691Z,44.50
2022-12-13T10:39:45.921Z,44.75
2022-12-13T10:40:57.242Z,45.75
2022-12-13T10:42:11.707Z,37.88
2022-12-13T10:43:20.150Z,38.25
2022-12-13T10:44:26.369Z,42.94
2022-12-13T10:45:33.393Z,45.63
2022-12-13T10:46:49.551Z,47.31
2022-12-13T10:47:53.482Z,49.56
2022-12-13T10:48:59.253Z,54.06
2022-12-13T10:50:05.281Z,52.73
2022-12-13T10:51:15.425Z,55.53
2022-12-13T10:52:31.652Z,62.06
2022-12-13T10:53:47.428Z,61.63
2022-12-13T10:54:49.431Z,55.75
2022-12-13T10:56:02.483Z,62.13
2022-12-13T10:57:03.474Z,62.53
2022-12-13T10:58:18.645Z,63.00
2022-12-13T10:59:36.860Z,64.94
2022-12-13T11:00:47.839Z,65.44
2022-12-13T11:01:51.998Z,55.33
2022-12-13T11:02:58.883Z,63.94
2022-12-13T11:04:07.441Z,63.87
2022-12-13T11:05:30.147Z,63.94
2022-12-13T11:06:45.597Z,63.33
2022-12-13T11:07:56.310Z,63.06
2022-12-13T11:09:04.613Z,60.56
2022-12-13T11:10:27.685Z,54.25
2022-12-13T11:11:35.300Z,62.69
2022-12-13T11:12:59.744Z,65.07
2022-12-13T11:16:45.420Z,54.20
2022-12-13T11:17:59.898Z,59.44
2022-12-13T11:19:27.804Z,60.60
2022-12-13T11:20:43.410Z,54.63
2022-12-13T11:21:49.825Z,53.06
2022-12-13T11:27:59.785Z,56.33
2022-12-13T11:29:24.280Z,49.60
2022-12-13T11:30:40.293Z,56.20
2022-12-13T11:33:14.621Z,53.63
2022-12-13T11:34:47.516Z,49.75
2022-12-13T11:36:26.307Z,51.88
2022-12-13T11:37:39.179Z,49.81
2022-12-13T11:44:17.811Z,52.31
2022-12-13T11:44:29.587Z,49.06
2022-12-13T11:45:48.422Z,54.50
2022-12-13T11:46:59.139Z,47.31
2022-12-13T11:48:13.618Z,46.44
2022-12-13T11:49:20.692Z,40.63
2022-12-13T11:51:08.878Z,51.31
2022-12-13T11:52:33.237Z,46.19
2022-12-13T11:53:41.531Z,51.94
2022-12-13T11:54:50.095Z,49.94
2022-12-13T11:55:57.045Z,42.25
2022-12-13T11:57:06.382Z,49.07
2022-12-13T11:58:53.887Z,51.56
2022-12-13T11:59:51.872Z,53.69
2022-12-13T12:01:19.541Z,49.06
2022-12-13T12:02:38.973Z,52.06
2022-12-13T12:03:48.848Z,50.81
2022-12-13T12:05:00.436Z,56.50
2022-12-13T12:06:13.696Z,53.87
2022-12-13T12:07:35.950Z,53.06
2022-12-13T12:08:46.061Z,52.62
2022-12-13T12:10:17.083Z,50.33
2022-12-13T12:11:25.666Z,51.44
2022-12-13T12:12:41.713Z,51.80
2022-12-13T12:13:52.092Z,49.06
2022-12-13T12:15:05.155Z,52.00
2022-12-13T12:16:15.150Z,53.67
2022-12-13T12:23:25.864Z,56.47
2022-12-13T12:24:41.675Z,61.00
2022-12-13T12:25:48.663Z,59.13
2022-12-13T12:27:13.689Z,57.38
2022-12-13T12:28:43.951Z,51.81
2022-12-13T12:30:06.589Z,55.56
2022-12-13T12:31:13.675Z,55.75
2022-12-13T12:32:35.830Z,60.12
2022-12-13T12:49:14.941Z,58.13
2022-12-13T12:50:42.733Z,59.33
2022-12-13T12:51:51.608Z,58.31
2022-12-13T12:53:29.303Z,56.13
2022-12-13T12:54:56.953Z,59.47
2022-12-13T12:56:20.682Z,59.06
2022-12-13T12:57:29.248Z,59.69
2022-12-13T12:58:47.846Z,56.06
2022-12-13T13:00:12.517Z,54.06
2022-12-13T13:01:43.718Z,54.88
2022-12-13T13:03:14.696Z,56.63
2022-12-13T13:04:10.890Z,55.80
2022-12-13T13:05:25.438Z,47.81
2022-12-13T13:06:36.696Z,52.50
2022-12-13T13:24:47.266Z,55.50
2022-12-13T13:27:16.884Z,49.00
2022-12-13T13:28:22.431Z,53.44
2022-12-13T13:29:32.194Z,52.62
2022-12-13T13:30:42.315Z,52.75
2022-12-13T13:32:04.500Z,51.19
2022-12-13T13:33:12.995Z,51.50
2022-12-13T13:34:28.364Z,53.07
2022-12-13T13:35:35.310Z,49.31
2022-12-13T13:36:45.254Z,51.06
2022-12-13T13:37:51.085Z,57.50
2022-12-13T13:39:01.055Z,56.94
2022-12-13T13:40:30.421Z,53.00
2022-12-13T13:41:54.024Z,48.56
2022-12-13T13:43:11.439Z,53.38
2022-12-13T13:59:55.509Z,54.00
2022-12-13T14:01:05.224Z,52.75
2022-12-13T14:14:52.052Z,54.19
2022-12-13T14:16:20.309Z,51.93
2022-12-13T21:10:10.892Z,19.20
2022-12-13T21:11:15.078Z,21.19
2022-12-13T22:14:27.896Z,23.00
2022-12-13T22:14:44.408Z,25.00
2022-12-13T22:15:48.391Z,23.44
2022-12-13T22:27:37.287Z,26.87
2022-12-13T22:30:11.878Z,28.25
2022-12-13T22:31:20.543Z,27.87
2022-12-13T22:32:28.938Z,27.25
2022-12-13T22:33:37.955Z,27.00
2022-12-13T22:34:49.116Z,28.93
2022-12-13T22:35:53.216Z,24.69
2022-12-13T22:37:06.393Z,23.00
2022-12-13T23:05:50.991Z,30.62
2022-12-13T23:41:46.011Z,45.75
